Time;durP1;ratioP1;P1;durP2;ratioP2;P2;SDS_P1;SDS_P2;PMS_P1;PMS_P2;Temp;Humidity;BMP_temperature;BMP_pressure;BME280_temperature;BME280_humidity;BME280_pressure;Samples;Min_cycle;Max_cycle;Signal;HPM_P1;HPM_P2
2022/07/08 00:00:13;;;;;;;2.57;2.00;;;17.50;99.90;;;;;;6124189;23;20514;-81
2022/07/08 00:02:40;;;;;;;4.33;2.10;;;17.50;99.90;;;;;;6119096;23;20443;-81
2022/07/08 00:05:08;;;;;;;8.43;2.10;;;17.40;99.90;;;;;;6122379;23;20445;-81
2022/07/08 00:07:35;;;;;;;4.00;2.00;;;17.30;99.90;;;;;;6118771;23;20940;-81
2022/07/08 00:10:05;;;;;;;2.43;1.83;;;17.20;99.90;;;;;;6128753;23;20467;-81
2022/07/08 00:12:32;;;;;;;4.83;2.60;;;17.20;99.90;;;;;;6134960;23;20503;-81
2022/07/08 00:14:59;;;;;;;3.70;2.47;;;17.20;99.90;;;;;;6120762;23;20465;-81
2022/07/08 00:17:27;;;;;;;3.27;2.27;;;17.20;99.90;;;;;;6119611;23;20441;-82
2022/07/08 00:19:54;;;;;;;2.50;2.00;;;17.10;99.90;;;;;;6117521;23;20468;-82
2022/07/08 00:22:21;;;;;;;3.23;2.27;;;17.10;99.90;;;;;;6115050;23;20989;-81
2022/07/08 00:24:48;;;;;;;4.63;2.30;;;17.10;99.90;;;;;;6118690;23;20481;-81
2022/07/08 00:27:17;;;;;;;5.80;2.90;;;17.00;99.90;;;;;;6119362;23;20442;-81
2022/07/08 00:29:44;;;;;;;4.53;2.50;;;17.00;99.90;;;;;;6120738;23;21047;-81
2022/07/08 00:32:11;;;;;;;5.87;2.83;;;16.90;99.90;;;;;;6119019;23;20468;-81
2022/07/08 00:34:38;;;;;;;7.30;3.20;;;16.90;99.90;;;;;;6116133;23;20449;-81
2022/07/08 00:37:06;;;;;;;6.20;3.33;;;16.80;99.90;;;;;;6138493;23;20486;-81
2022/07/08 00:39:33;;;;;;;4.93;3.30;;;16.70;99.90;;;;;;6129898;23;20468;-81
2022/07/08 00:42:01;;;;;;;4.60;2.90;;;16.60;99.90;;;;;;6120463;23;20530;-81
2022/07/08 00:44:30;;;;;;;5.23;3.70;;;16.60;99.90;;;;;;6115457;23;20837;-81
2022/07/08 00:46:57;;;;;;;7.00;3.70;;;16.40;99.90;;;;;;6119891;23;20437;-81
2022/07/08 00:49:24;;;;;;;4.30;3.40;;;16.30;99.90;;;;;;6118711;23;20493;-81
2022/07/08 00:51:51;;;;;;;4.33;3.23;;;16.20;99.90;;;;;;6121473;23;20443;-81
2022/07/08 00:54:22;;;;;;;7.90;3.20;;;16.10;99.90;;;;;;6131120;23;20528;-81
2022/07/08 00:56:50;;;;;;;6.20;3.27;;;16.10;99.90;;;;;;6121440;23;20993;-81
2022/07/08 00:59:17;;;;;;;5.70;3.30;;;16.10;99.90;;;;;;6118463;23;21052;-81
2022/07/08 01:01:45;;;;;;;5.30;3.00;;;16.00;99.90;;;;;;6125982;23;20844;-81
2022/07/08 01:04:13;;;;;;;6.23;3.40;;;16.00;99.90;;;;;;6117222;23;20899;-82
2022/07/08 01:06:41;;;;;;;4.60;3.40;;;15.90;99.90;;;;;;6119277;23;20480;-81
2022/07/08 01:09:08;;;;;;;5.20;3.63;;;15.90;99.90;;;;;;6119732;23;20462;-81
2022/07/08 01:11:35;;;;;;;4.40;3.20;;;15.80;99.90;;;;;;6118122;23;20516;-81
2022/07/08 01:14:03;;;;;;;3.57;3.00;;;15.80;99.90;;;;;;6121182;23;20450;-81
2022/07/08 01:16:30;;;;;;;5.23;3.37;;;15.70;99.90;;;;;;6118822;23;20896;-80
2022/07/08 01:18:59;;;;;;;3.53;2.87;;;15.70;99.90;;;;;;6114785;23;20521;-81
2022/07/08 01:21:27;;;;;;;6.60;3.33;;;15.50;99.90;;;;;;6119013;23;20441;-81
2022/07/08 01:23:54;;;;;;;5.20;3.30;;;15.50;99.90;;;;;;6126350;23;20552;-81
2022/07/08 01:26:21;;;;;;;4.37;3.63;;;15.40;99.90;;;;;;6120162;23;20463;-81
2022/07/08 01:28:48;;;;;;;9.00;3.87;;;15.40;99.90;;;;;;6122000;23;20502;-81
2022/07/08 01:31:15;;;;;;;4.03;2.97;;;15.30;99.90;;;;;;6119616;23;20466;-80
2022/07/08 01:33:43;;;;;;;3.80;2.83;;;15.20;99.90;;;;;;6142135;23;20984;-81
2022/07/08 01:36:10;;;;;;;6.17;3.40;;;15.20;99.90;;;;;;6123156;23;20463;-81
2022/07/08 01:38:39;;;;;;;6.80;3.17;;;15.10;99.90;;;;;;6138112;23;20437;-81
2022/07/08 01:41:06;;;;;;;3.97;2.57;;;15.10;99.90;;;;;;6122433;23;20434;-81
2022/07/08 01:43:34;;;;;;;6.53;2.67;;;15.10;99.90;;;;;;6126839;23;20536;-81
2022/07/08 01:46:01;;;;;;;8.37;3.63;;;15.00;99.90;;;;;;6139721;23;20876;-81
2022/07/08 01:48:28;;;;;;;7.07;3.57;;;15.00;99.90;;;;;;6124087;23;21251;-81
2022/07/08 01:50:55;;;;;;;6.10;3.10;;;15.00;99.90;;;;;;6123917;23;20532;-81
2022/07/08 01:53:22;;;;;;;3.93;3.00;;;15.00;99.90;;;;;;6128798;23;20470;-80
2022/07/08 01:55:50;;;;;;;3.40;2.70;;;15.00;99.90;;;;;;6124555;23;20930;-80
2022/07/08 01:58:18;;;;;;;4.60;2.90;;;14.90;99.90;;;;;;6126768;23;20437;-81
2022/07/08 02:00:45;;;;;;;5.03;3.73;;;15.00;99.90;;;;;;6139554;23;20463;-80
2022/07/08 02:03:12;;;;;;;4.63;2.73;;;15.00;99.90;;;;;;6146182;23;20425;-80
2022/07/08 02:05:39;;;;;;;5.63;3.27;;;15.10;99.90;;;;;;6143029;23;20449;-80
2022/07/08 02:08:06;;;;;;;5.80;3.07;;;15.10;99.90;;;;;;6124678;23;20520;-80
2022/07/08 02:12:18;;;;;;;6.57;2.70;;;15.10;99.90;;;;;;6130376;23;20509;-80
2022/07/08 02:13:21;;;;;;;5.17;2.93;;;15.10;99.90;;;;;;6149673;23;20442;-80
2022/07/08 02:15:48;;;;;;;4.97;3.03;;;15.10;99.90;;;;;;6149685;23;20414;-81
2022/07/08 02:18:15;;;;;;;4.47;3.70;;;15.20;99.90;;;;;;6146279;23;20468;-81
2022/07/08 02:20:42;;;;;;;4.30;3.27;;;15.20;99.90;;;;;;6132214;23;20500;-80
2022/07/08 02:23:09;;;;;;;8.50;3.33;;;15.20;99.90;;;;;;6119984;23;20445;-79
2022/07/08 02:25:36;;;;;;;6.40;3.17;;;15.20;99.90;;;;;;6122431;23;20469;-81
2022/07/08 02:28:04;;;;;;;4.83;3.00;;;15.10;99.90;;;;;;6121430;23;20520;-80
2022/07/08 02:30:32;;;;;;;4.53;2.70;;;15.20;99.90;;;;;;6120489;23;20461;-81
2022/07/08 02:32:59;;;;;;;5.13;2.60;;;15.20;99.90;;;;;;6119839;23;20524;-81
2022/07/08 02:35:26;;;;;;;4.97;2.77;;;15.20;99.90;;;;;;6125571;23;20449;-81
2022/07/08 02:37:53;;;;;;;3.90;3.13;;;15.10;99.90;;;;;;6119306;23;21300;-81
2022/07/08 02:40:20;;;;;;;4.73;2.57;;;15.10;99.90;;;;;;6119049;23;20441;-81
2022/07/08 02:42:47;;;;;;;7.00;3.80;;;15.10;99.90;;;;;;6118220;23;20460;-81
2022/07/08 02:45:15;;;;;;;5.30;3.43;;;15.10;99.90;;;;;;6138680;23;20468;-81
2022/07/08 02:47:43;;;;;;;6.57;2.90;;;15.10;99.90;;;;;;6128221;23;20441;-81
2022/07/08 02:50:10;;;;;;;8.53;2.90;;;15.10;99.90;;;;;;6147467;23;20812;-81
2022/07/08 02:52:37;;;;;;;4.40;2.50;;;15.00;99.90;;;;;;6127958;23;20491;-82
2022/07/08 02:55:05;;;;;;;4.00;2.67;;;15.00;99.90;;;;;;6118643;23;20516;-81
2022/07/08 02:57:32;;;;;;;5.07;2.63;;;15.10;99.90;;;;;;6133589;23;20556;-81
2022/07/08 02:59:59;;;;;;;5.53;2.47;;;15.10;99.90;;;;;;6119304;23;21007;-81
2022/07/08 03:02:26;;;;;;;4.27;2.60;;;15.10;99.90;;;;;;6118517;23;20449;-81
2022/07/08 03:04:54;;;;;;;4.80;2.60;;;15.00;99.90;;;;;;6119569;23;20990;-81
2022/07/08 03:07:22;;;;;;;5.93;2.80;;;15.00;99.90;;;;;;6121949;23;20584;-81
2022/07/08 03:09:49;;;;;;;4.63;2.80;;;14.90;99.90;;;;;;6116203;23;20468;-81
2022/07/08 03:12:16;;;;;;;4.60;2.60;;;14.90;99.90;;;;;;6123492;23;20825;-81
2022/07/08 03:14:43;;;;;;;5.50;2.27;;;14.90;99.90;;;;;;6135485;23;20442;-81
2022/07/08 03:17:10;;;;;;;3.77;2.67;;;14.80;99.90;;;;;;6135106;23;20434;-81
2022/07/08 03:19:37;;;;;;;3.13;2.60;;;14.80;99.90;;;;;;6118370;23;20816;-81
2022/07/08 03:22:05;;;;;;;4.60;3.00;;;14.80;99.90;;;;;;6112356;23;20450;-81
2022/07/08 03:24:32;;;;;;;4.70;3.00;;;14.80;99.90;;;;;;6121296;23;20495;-81
2022/07/08 03:27:00;;;;;;;4.20;2.87;;;14.70;99.90;;;;;;6121802;23;20438;-81
2022/07/08 03:29:27;;;;;;;3.83;2.57;;;14.70;99.90;;;;;;6119103;23;20481;-81
2022/07/08 03:31:55;;;;;;;5.60;2.87;;;14.70;99.90;;;;;;6122851;23;20437;-81
2022/07/08 03:34:22;;;;;;;5.50;2.77;;;14.60;99.90;;;;;;6118217;23;20441;-81
2022/07/08 03:36:49;;;;;;;6.27;3.07;;;14.60;99.90;;;;;;6126700;23;20481;-81
2022/07/08 03:39:18;;;;;;;4.93;2.85;;;14.60;99.90;;;;;;6112626;23;20468;-82
2022/07/08 03:41:44;;;;;;;5.50;3.30;;;14.60;99.90;;;;;;6137753;23;20195;-81
2022/07/08 03:44:11;;;;;;;4.83;2.60;;;14.50;99.90;;;;;;6119345;23;20468;-81
2022/07/08 03:46:38;;;;;;;5.50;3.20;;;14.40;99.90;;;;;;6144042;23;20468;-81
2022/07/08 03:49:05;;;;;;;5.33;3.13;;;14.30;99.90;;;;;;6130218;23;20458;-81
2022/07/08 03:51:32;;;;;;;3.83;3.30;;;14.30;99.90;;;;;;6119249;23;20434;-81
2022/07/08 03:53:59;;;;;;;4.80;3.35;;;14.30;99.90;;;;;;6127442;23;20476;-81
2022/07/08 03:56:28;;;;;;;4.60;3.07;;;14.20;99.90;;;;;;6132778;23;20194;-81
2022/07/08 03:58:55;;;;;;;5.63;3.20;;;14.20;99.90;;;;;;6117551;23;20843;-81
2022/07/08 04:01:22;;;;;;;6.00;3.10;;;14.10;99.90;;;;;;6124447;23;20225;-81
2022/07/08 04:03:49;;;;;;;4.67;3.17;;;14.10;99.90;;;;;;6123279;23;20800;-81
2022/07/08 04:06:16;;;;;;;5.23;3.27;;;14.10;99.90;;;;;;6125064;23;20444;-81
2022/07/08 04:08:43;;;;;;;6.43;3.00;;;14.10;99.90;;;;;;6128635;23;20508;-81
2022/07/08 04:11:11;;;;;;;6.30;3.20;;;14.10;99.90;;;;;;6119788;23;20473;-81
2022/07/08 04:13:41;;;;;;;5.57;3.23;;;14.20;99.90;;;;;;6118252;23;20780;-81
2022/07/08 04:16:12;;;;;;;5.20;2.87;;;14.20;99.90;;;;;;6121673;23;20446;-81
2022/07/08 04:18:39;;;;;;;7.93;3.63;;;14.20;99.90;;;;;;6125392;23;20449;-81
2022/07/08 04:21:07;;;;;;;5.63;3.23;;;14.20;99.90;;;;;;6129446;23;22101;-81
2022/07/08 04:23:34;;;;;;;5.23;3.30;;;14.20;99.90;;;;;;6119527;23;20449;-81
2022/07/08 04:26:01;;;;;;;7.60;3.13;;;14.20;99.90;;;;;;6123276;23;20473;-81
2022/07/08 04:28:28;;;;;;;7.10;3.33;;;14.20;99.90;;;;;;6119964;23;20489;-81
2022/07/08 04:30:57;;;;;;;8.90;3.97;;;14.20;99.90;;;;;;6115535;23;20516;-81
2022/07/08 04:33:24;;;;;;;7.30;3.43;;;14.20;99.90;;;;;;6117447;23;20512;-81
2022/07/08 04:35:51;;;;;;;5.20;3.10;;;14.20;99.90;;;;;;6115174;23;20446;-81
2022/07/08 04:38:18;;;;;;;4.10;3.40;;;14.30;99.90;;;;;;6121241;23;20461;-86
2022/07/08 04:40:45;;;;;;;7.57;3.35;;;14.30;99.90;;;;;;6130036;23;20441;-81
2022/07/08 04:43:12;;;;;;;6.97;3.03;;;14.30;99.90;;;;;;6128266;23;20254;-81
2022/07/08 04:45:39;;;;;;;5.47;3.20;;;14.40;99.90;;;;;;6126930;23;20460;-81
2022/07/08 04:48:08;;;;;;;5.30;2.80;;;14.50;99.90;;;;;;6124220;23;20532;-81
2022/07/08 04:50:35;;;;;;;4.07;3.50;;;14.50;99.90;;;;;;6118426;23;20442;-80
2022/07/08 04:53:02;;;;;;;5.70;3.13;;;14.50;99.90;;;;;;6118634;23;20916;-80
2022/07/08 04:55:29;;;;;;;5.13;2.90;;;14.60;99.90;;;;;;6119374;23;20449;-80
2022/07/08 04:57:59;;;;;;;3.23;2.93;;;14.60;99.90;;;;;;6127016;23;20493;-80
2022/07/08 05:00:26;;;;;;;6.23;3.30;;;14.70;99.90;;;;;;6124231;23;20780;-80
2022/07/08 05:02:53;;;;;;;4.80;3.10;;;14.70;99.90;;;;;;6115790;23;20446;-80
2022/07/08 05:05:22;;;;;;;5.80;2.90;;;14.70;99.90;;;;;;6120000;23;20505;-81
2022/07/08 05:07:49;;;;;;;5.40;2.87;;;14.80;99.90;;;;;;6127794;23;20437;-81
2022/07/08 05:10:17;;;;;;;5.50;2.40;;;14.80;99.90;;;;;;6117369;23;20878;-80
2022/07/08 05:12:44;;;;;;;6.10;3.00;;;14.90;99.90;;;;;;6107889;23;21199;-77
2022/07/08 05:15:13;;;;;;;4.50;2.90;;;14.90;99.90;;;;;;6108968;23;20441;-81
2022/07/08 05:17:41;;;;;;;7.20;2.93;;;15.00;99.90;;;;;;6111635;23;21075;-79
2022/07/08 05:20:09;;;;;;;6.93;2.83;;;15.10;99.90;;;;;;6114401;23;21136;-79
2022/07/08 05:22:38;;;;;;;5.23;2.30;;;15.20;99.90;;;;;;6115389;23;20429;-79
2022/07/08 05:25:07;;;;;;;6.13;2.87;;;15.30;99.90;;;;;;6112626;23;20804;-77
2022/07/08 05:27:34;;;;;;;5.80;2.77;;;15.40;99.90;;;;;;6111375;23;20856;-78
2022/07/08 05:30:01;;;;;;;7.50;3.10;;;15.50;99.90;;;;;;6118490;23;20441;-77
2022/07/08 05:32:29;;;;;;;6.27;2.80;;;15.50;99.90;;;;;;6112037;23;20486;-77
2022/07/08 05:34:57;;;;;;;4.83;2.20;;;15.50;99.90;;;;;;6117149;23;20520;-78
2022/07/08 05:37:24;;;;;;;4.10;2.23;;;15.60;99.90;;;;;;6119141;23;20435;-77
2022/07/08 05:39:52;;;;;;;3.80;2.47;;;15.60;99.90;;;;;;6117295;23;20440;-77
2022/07/08 05:42:19;;;;;;;3.60;2.20;;;15.60;99.90;;;;;;6116917;23;20434;-79
2022/07/08 05:44:47;;;;;;;5.10;2.40;;;15.60;99.90;;;;;;6116529;23;20453;-81
2022/07/08 05:47:14;;;;;;;3.70;2.07;;;15.70;99.90;;;;;;6118667;23;20434;-81
2022/07/08 05:49:43;;;;;;;5.60;2.40;;;15.70;99.90;;;;;;6119499;23;20507;-81
2022/07/08 05:52:10;;;;;;;4.37;2.13;;;15.70;99.90;;;;;;6118188;23;20437;-82
2022/07/08 05:54:39;;;;;;;7.17;3.03;;;15.70;99.90;;;;;;6116160;23;20434;-81
2022/07/08 05:57:07;;;;;;;5.07;2.60;;;15.60;99.90;;;;;;6114374;23;21214;-82
2022/07/08 05:59:34;;;;;;;3.93;2.50;;;15.70;99.90;;;;;;6115298;23;20455;-82
2022/07/08 06:02:04;;;;;;;4.30;2.30;;;15.70;99.90;;;;;;6117224;23;20442;-81
2022/07/08 06:04:31;;;;;;;3.67;2.03;;;15.70;99.90;;;;;;6115169;23;20442;-82
2022/07/08 06:06:58;;;;;;;4.40;2.80;;;15.70;99.90;;;;;;6117311;23;20809;-82
2022/07/08 06:09:27;;;;;;;4.60;2.30;;;15.70;99.90;;;;;;6117285;23;20470;-81
2022/07/08 06:11:54;;;;;;;4.23;2.30;;;15.80;99.90;;;;;;6117471;23;20444;-79
2022/07/08 06:14:22;;;;;;;3.77;1.97;;;15.80;99.90;;;;;;6116788;23;20437;-82
2022/07/08 06:16:49;;;;;;;6.07;2.30;;;15.90;99.90;;;;;;6118604;23;20439;-82
2022/07/08 06:19:16;;;;;;;4.67;2.20;;;16.00;99.90;;;;;;6114712;23;20550;-82
2022/07/08 06:21:44;;;;;;;5.27;2.60;;;16.10;99.90;;;;;;6111295;23;20438;-82
2022/07/08 06:24:11;;;;;;;4.10;2.10;;;16.20;99.90;;;;;;6119261;23;20438;-83
2022/07/08 06:26:38;;;;;;;7.00;2.40;;;16.30;99.90;;;;;;6115892;23;21029;-81
2022/07/08 06:29:06;;;;;;;4.20;2.13;;;16.30;99.90;;;;;;6115394;23;20460;-82
2022/07/08 06:31:36;;;;;;;4.70;2.47;;;16.40;99.90;;;;;;6115827;23;20486;-83
2022/07/08 06:34:03;;;;;;;3.10;1.83;;;16.60;99.90;;;;;;6115291;23;20557;-82
2022/07/08 06:36:32;;;;;;;2.70;1.70;;;16.70;99.90;;;;;;6118542;23;20450;-82
2022/07/08 06:39:00;;;;;;;2.80;1.93;;;16.80;99.90;;;;;;6118583;23;20472;-82
2022/07/08 06:41:27;;;;;;;4.30;2.00;;;16.90;99.90;;;;;;6104628;23;20446;-83
2022/07/08 06:43:54;;;;;;;3.77;2.27;;;17.00;99.90;;;;;;6120817;23;20476;-83
2022/07/08 06:46:21;;;;;;;3.07;1.63;;;17.10;99.90;;;;;;6117394;23;20469;-83
2022/07/08 06:48:50;;;;;;;4.40;1.80;;;17.10;99.90;;;;;;6104938;23;20463;-83
2022/07/08 06:51:17;;;;;;;3.17;1.60;;;17.20;99.90;;;;;;6114056;23;20426;-83
2022/07/08 06:56:28;;;;;;;3.13;1.60;;;17.50;99.90;;;;;;6113157;23;20440;-82
2022/07/08 06:58:55;;;;;;;2.03;1.43;;;17.60;99.10;;;;;;6115037;23;20469;-83
2022/07/08 07:01:22;;;;;;;3.47;1.43;;;17.70;99.10;;;;;;6115002;23;20797;-83
2022/07/08 07:03:51;;;;;;;2.13;1.30;;;17.80;98.30;;;;;;6117684;23;20525;-83
2022/07/08 07:06:18;;;;;;;3.37;1.50;;;17.90;97.90;;;;;;6111754;23;20481;-84
2022/07/08 07:08:51;;;;;;;4.00;1.30;;;18.00;98.00;;;;;;6117136;23;20457;-83
2022/07/08 07:11:30;;;;;;;2.70;1.33;;;18.20;97.50;;;;;;6124566;23;20437;-83
2022/07/08 07:14:01;;;;;;;3.93;1.50;;;18.40;96.90;;;;;;6128398;23;20441;-84
2022/07/08 07:16:32;;;;;;;2.40;1.33;;;18.60;96.80;;;;;;6132057;23;20932;-82
2022/07/08 07:19:07;;;;;;;3.23;1.80;;;18.60;96.80;;;;;;6128688;23;21321;-83
2022/07/08 07:21:35;;;;;;;3.37;1.90;;;18.80;97.10;;;;;;6118115;23;20482;-83
2022/07/08 07:24:02;;;;;;;3.77;1.50;;;19.00;96.90;;;;;;6114821;23;20512;-82
2022/07/08 07:26:29;;;;;;;3.80;1.60;;;19.10;96.30;;;;;;6108090;23;20545;-82
2022/07/08 07:28:56;;;;;;;2.33;1.53;;;19.40;95.90;;;;;;6117358;23;20454;-82
2022/07/08 07:31:23;;;;;;;3.67;1.67;;;19.60;95.60;;;;;;6110960;23;20446;-83
2022/07/08 07:33:50;;;;;;;3.47;1.60;;;19.60;94.80;;;;;;6117213;23;20458;-82
2022/07/08 07:36:19;;;;;;;3.07;1.40;;;19.60;94.50;;;;;;6113225;23;20455;-82
2022/07/08 07:38:45;;;;;;;3.60;1.70;;;19.80;93.90;;;;;;6108219;23;20522;-82
2022/07/08 07:41:13;;;;;;;4.70;1.17;;;20.00;94.30;;;;;;6117689;23;20463;-82
2022/07/08 07:43:41;;;;;;;2.37;1.47;;;20.00;93.50;;;;;;6116430;23;20434;-82
2022/07/08 07:46:08;;;;;;;4.07;1.60;;;20.00;93.30;;;;;;6126768;23;20499;-82
2022/07/08 07:48:35;;;;;;;3.30;1.60;;;20.00;93.10;;;;;;6136422;23;20496;-82
2022/07/08 07:51:03;;;;;;;4.40;1.70;;;20.10;92.70;;;;;;6137864;23;20458;-82
2022/07/08 07:53:32;;;;;;;4.30;1.43;;;20.20;92.60;;;;;;6133052;23;20458;-83
2022/07/08 07:56:00;;;;;;;3.30;1.30;;;20.60;92.90;;;;;;6119466;23;20457;-82
2022/07/08 07:58:33;;;;;;;2.27;1.50;;;20.90;92.60;;;;;;6126726;23;20461;-82
2022/07/08 08:01:01;;;;;;;2.13;1.50;;;21.30;92.10;;;;;;6148916;23;20442;-82
2022/07/08 08:03:28;;;;;;;2.20;1.27;;;22.00;91.20;;;;;;6144429;23;20416;-83
2022/07/08 08:05:55;;;;;;;3.07;1.37;;;22.40;90.10;;;;;;6146462;23;20482;-82
2022/07/08 08:08:24;;;;;;;3.90;1.30;;;22.40;88.30;;;;;;6138827;23;20450;-82
2022/07/08 08:10:59;;;;;;;2.67;1.33;;;22.30;89.80;;;;;;6121259;23;20439;-83
2022/07/08 08:13:32;;;;;;;2.67;1.60;;;22.80;89.50;;;;;;6119759;23;20791;-82
2022/07/08 08:15:59;;;;;;;3.57;1.33;;;23.80;86.90;;;;;;6117510;23;20439;-83
2022/07/08 08:18:26;;;;;;;2.70;1.30;;;24.60;83.60;;;;;;6117054;23;20861;-83
2022/07/08 08:20:53;;;;;;;3.37;1.47;;;24.80;81.90;;;;;;6117184;23;20514;-82
2022/07/08 08:23:21;;;;;;;2.53;1.40;;;24.80;80.10;;;;;;6110533;23;20523;-83
2022/07/08 08:25:48;;;;;;;2.80;1.40;;;24.50;79.60;;;;;;6117730;23;20553;-83
2022/07/08 08:28:17;;;;;;;2.73;1.20;;;24.10;80.30;;;;;;6112211;23;20837;-83
2022/07/08 08:30:44;;;;;;;4.53;1.50;;;23.80;81.00;;;;;;6116013;23;20444;-82
2022/07/08 08:33:11;;;;;;;4.30;2.00;;;23.20;81.20;;;;;;6116903;23;20434;-83
2022/07/08 08:35:38;;;;;;;2.20;1.30;;;22.80;81.60;;;;;;6118164;23;20794;-84
2022/07/08 08:38:05;;;;;;;3.07;1.23;;;22.60;83.00;;;;;;6117083;23;21034;-83
2022/07/08 08:40:32;;;;;;;3.20;1.60;;;22.30;83.50;;;;;;6115135;23;20944;-84
2022/07/08 08:43:00;;;;;;;2.23;1.40;;;22.00;85.10;;;;;;6116743;23;20490;-83
2022/07/08 08:45:29;;;;;;;2.30;1.60;;;22.00;82.90;;;;;;6117215;23;20439;-86
2022/07/08 08:48:00;;;;;;;3.83;1.50;;;22.40;82.10;;;;;;6115365;23;20464;-82
2022/07/08 08:53:18;;;;;;;2.83;1.63;;;22.70;84.40;;;;;;6113993;23;20460;-77
2022/07/08 08:55:46;;;;;;;3.17;2.00;;;23.40;82.30;;;;;;6115857;23;20438;-78
2022/07/08 08:58:13;;;;;;;3.33;1.40;;;23.50;80.30;;;;;;6114270;23;20461;-77
2022/07/08 09:00:43;;;;;;;2.73;1.40;;;23.40;79.40;;;;;;6115240;23;20464;-78
2022/07/08 09:03:11;;;;;;;3.17;1.40;;;23.30;80.10;;;;;;6112482;23;20522;-80
2022/07/08 09:05:38;;;;;;;2.03;1.40;;;23.30;80.60;;;;;;6112711;23;20475;-80
2022/07/08 09:08:05;;;;;;;3.40;1.30;;;23.20;79.70;;;;;;6117165;23;20504;-83
2022/07/08 09:10:34;;;;;;;3.77;1.60;;;23.20;81.30;;;;;;6117531;23;20455;-82
2022/07/08 09:13:03;;;;;;;1.97;1.33;;;23.20;80.10;;;;;;6114189;23;20437;-80
2022/07/08 09:15:32;;;;;;;2.77;1.40;;;23.60;79.00;;;;;;6108036;23;20709;-79
2022/07/08 09:18:02;;;;;;;3.47;1.60;;;24.90;79.40;;;;;;6107830;23;20541;-80
2022/07/08 09:20:39;;;;;;;3.33;1.60;;;26.40;74.30;;;;;;6113324;23;22483;-79
2022/07/08 09:23:10;;;;;;;4.13;1.80;;;27.30;71.20;;;;;;6114940;23;20523;-79
2022/07/08 09:25:37;;;;;;;3.07;1.60;;;27.80;68.90;;;;;;6111745;23;20486;-79
2022/07/08 09:28:04;;;;;;;2.10;1.20;;;27.70;70.00;;;;;;6116941;23;20467;-79
2022/07/08 09:30:31;;;;;;;3.30;1.60;;;27.10;67.30;;;;;;6114074;23;20445;-79
2022/07/08 09:32:59;;;;;;;3.87;1.50;;;26.30;68.60;;;;;;6115301;23;20861;-79
2022/07/08 09:35:36;;;;;;;6.20;1.93;;;25.60;70.60;;;;;;6112164;23;20448;-79
2022/07/08 09:38:05;;;;;;;3.30;1.40;;;24.80;71.20;;;;;;6112542;23;20872;-79
2022/07/08 09:40:33;;;;;;;2.23;1.20;;;24.80;71.50;;;;;;6114766;23;20451;-88
2022/07/08 09:43:01;;;;;;;2.00;1.20;;;25.20;70.00;;;;;;6114715;23;20452;-78
2022/07/08 09:45:30;;;;;;;1.77;1.20;;;25.80;70.00;;;;;;6113631;23;21259;-79
2022/07/08 09:48:05;;;;;;;2.70;1.30;;;26.90;67.70;;;;;;6116659;23;20506;-85
2022/07/08 09:50:36;;;;;;;2.67;1.70;;;27.00;65.90;;;;;;6113657;23;20440;-85
2022/07/08 09:53:16;;;;;;;2.97;1.63;;;26.40;67.00;;;;;;6116128;23;20526;-78
2022/07/08 09:55:47;;;;;;;3.70;1.50;;;25.70;67.50;;;;;;6112970;23;20492;-80
2022/07/08 09:58:15;;;;;;;4.03;1.63;;;25.00;68.70;;;;;;6115812;23;20548;-81
2022/07/08 10:00:44;;;;;;;4.43;1.60;;;25.30;68.90;;;;;;6121311;23;20465;-81
2022/07/08 10:03:11;;;;;;;3.33;1.33;;;26.10;68.20;;;;;;6115084;23;20433;-83
2022/07/08 10:05:40;;;;;;;3.50;1.40;;;27.20;65.50;;;;;;6117597;23;20456;-82
2022/07/08 10:08:08;;;;;;;5.13;1.27;;;28.00;64.50;;;;;;6119182;23;20547;-82
2022/07/08 10:10:43;;;;;;;1.57;1.17;;;28.90;62.20;;;;;;6114224;23;20428;-83
2022/07/08 10:13:11;;;;;;;2.93;1.37;;;29.50;60.70;;;;;;6118628;23;20440;-82
2022/07/08 10:15:40;;;;;;;1.90;1.27;;;30.20;59.70;;;;;;6117096;23;20433;-83
2022/07/08 10:18:13;;;;;;;2.23;1.43;;;31.00;57.20;;;;;;6118749;23;20450;-83
2022/07/08 10:20:45;;;;;;;1.80;1.30;;;31.60;55.50;;;;;;6116836;23;20430;-83
2022/07/08 10:23:20;;;;;;;2.10;1.50;;;32.00;55.00;;;;;;6115429;23;20453;-83
2022/07/08 10:25:48;;;;;;;3.67;1.50;;;32.70;54.10;;;;;;6119534;23;21087;-82
2022/07/08 10:28:15;;;;;;;2.10;1.27;;;32.30;51.40;;;;;;6115702;23;20480;-83
2022/07/08 10:30:49;;;;;;;3.43;1.50;;;32.10;51.60;;;;;;6118146;23;20492;-81
2022/07/08 10:33:27;;;;;;;5.43;1.60;;;31.60;51.70;;;;;;6116160;23;20501;-80
2022/07/08 10:36:07;;;;;;;2.70;1.23;;;31.30;52.70;;;;;;6113107;23;20444;-86
2022/07/08 10:38:36;;;;;;;1.83;1.00;;;31.30;52.20;;;;;;6122451;23;20815;-86
2022/07/08 10:41:05;;;;;;;4.20;1.30;;;31.40;51.70;;;;;;6115024;23;20440;-85
2022/07/08 10:43:32;;;;;;;2.43;1.50;;;31.40;51.60;;;;;;6117994;23;20438;-85
2022/07/08 10:46:02;;;;;;;3.10;1.33;;;31.10;52.20;;;;;;6116151;23;20434;-86
2022/07/08 10:48:29;;;;;;;3.70;1.20;;;31.20;52.20;;;;;;6118102;23;20551;-86
2022/07/08 10:50:57;;;;;;;2.57;1.23;;;31.60;52.30;;;;;;6116107;23;20444;-85
2022/07/08 10:53:46;;;;;;;2.20;1.30;;;31.70;49.90;;;;;;6119467;23;20433;-85
2022/07/08 10:56:40;;;;;;;4.33;1.53;;;31.40;50.70;;;;;;6116668;23;20453;-85
2022/07/08 10:59:19;;;;;;;4.27;1.60;;;31.30;52.10;;;;;;6117935;23;20928;-84
2022/07/08 11:01:51;;;;;;;2.93;1.67;;;31.20;51.10;;;;;;6115101;23;20790;-85
2022/07/08 11:04:21;;;;;;;4.60;1.60;;;30.90;52.00;;;;;;6119401;23;20453;-85
2022/07/08 11:06:50;;;;;;;3.20;1.40;;;31.00;50.20;;;;;;6109589;23;20491;-85
2022/07/08 11:09:20;;;;;;;3.20;1.17;;;31.00;50.40;;;;;;6121590;23;20453;-85
2022/07/08 11:11:47;;;;;;;2.43;1.20;;;31.10;49.90;;;;;;6114749;23;20454;-85
2022/07/08 11:14:14;;;;;;;1.80;1.13;;;31.20;50.10;;;;;;6120144;23;20434;-85
2022/07/08 11:16:41;;;;;;;2.60;1.30;;;31.20;49.40;;;;;;6117628;23;21006;-84
2022/07/08 11:19:09;;;;;;;2.80;1.97;;;31.00;49.60;;;;;;6117686;23;20444;-84
2022/07/08 11:21:36;;;;;;;2.73;1.77;;;30.70;50.70;;;;;;6115391;23;20436;-85
2022/07/08 11:24:03;;;;;;;4.00;1.20;;;30.80;51.40;;;;;;6118097;23;20448;-84
2022/07/08 11:26:32;;;;;;;2.30;1.70;;;30.70;50.20;;;;;;6119470;23;20814;-85
2022/07/08 11:28:59;;;;;;;2.70;1.30;;;30.60;50.50;;;;;;6116573;23;20982;-81
2022/07/08 11:31:26;;;;;;;2.97;1.40;;;30.20;51.60;;;;;;6119811;23;20825;-80
2022/07/08 11:33:53;;;;;;;2.70;1.63;;;30.30;50.30;;;;;;6111964;23;20436;-80
2022/07/08 11:36:21;;;;;;;1.77;1.20;;;30.00;50.70;;;;;;6119622;23;20433;-80
2022/07/08 11:38:49;;;;;;;2.50;1.33;;;29.90;51.30;;;;;;6111240;23;20474;-83
2022/07/08 11:41:20;;;;;;;2.27;1.27;;;29.70;50.90;;;;;;6119844;23;20440;-85
2022/07/08 11:43:49;;;;;;;2.40;1.10;;;29.50;51.60;;;;;;6118111;23;20454;-85
2022/07/08 11:46:21;;;;;;;3.27;1.70;;;29.50;52.00;;;;;;6118172;23;20978;-85
2022/07/08 11:48:49;;;;;;;3.10;1.50;;;29.40;51.80;;;;;;6121289;23;20521;-85
2022/07/08 11:51:17;;;;;;;2.80;1.47;;;29.50;52.50;;;;;;6120726;23;20452;-86
2022/07/08 11:53:45;;;;;;;2.27;1.40;;;29.50;51.90;;;;;;6119760;23;20757;-85
2022/07/08 11:56:13;;;;;;;1.67;1.20;;;29.30;51.70;;;;;;6120889;23;20520;-86
2022/07/08 11:58:40;;;;;;;2.93;1.47;;;29.40;53.20;;;;;;6120092;23;20447;-85
2022/07/08 12:01:09;;;;;;;2.20;1.37;;;29.50;52.70;;;;;;6121175;23;20495;-85
2022/07/08 12:03:36;;;;;;;2.57;1.40;;;29.80;52.70;;;;;;6120977;23;20480;-85
2022/07/08 12:06:04;;;;;;;2.17;1.40;;;30.00;52.40;;;;;;6139442;23;20458;-85
2022/07/08 12:08:33;;;;;;;1.87;1.10;;;30.30;51.80;;;;;;6120448;23;20484;-85
2022/07/08 12:11:15;;;;;;;3.83;1.50;;;30.20;51.30;;;;;;6112374;23;20447;-85
2022/07/08 12:13:44;;;;;;;2.00;1.20;;;30.50;51.20;;;;;;6119701;23;20464;-86
2022/07/08 12:16:28;;;;;;;1.60;1.20;;;30.50;50.90;;;;;;6119428;23;20440;-85
2022/07/08 12:18:55;;;;;;;2.93;1.30;;;30.70;51.30;;;;;;6132270;23;20996;-85
2022/07/08 12:21:22;;;;;;;2.97;1.37;;;30.60;51.40;;;;;;6122581;23;20511;-86
2022/07/08 12:23:56;;;;;;;2.37;1.20;;;30.70;52.20;;;;;;6121234;23;20443;-86
2022/07/08 12:26:26;;;;;;;2.93;1.10;;;30.70;50.60;;;;;;6121126;23;20470;-85
2022/07/08 12:28:53;;;;;;;1.40;1.30;;;30.60;51.30;;;;;;6118869;23;20890;-85
2022/07/08 12:31:35;;;;;;;2.40;1.23;;;30.60;51.10;;;;;;6114845;23;20445;-85
2022/07/08 12:34:02;;;;;;;4.53;1.27;;;30.30;50.10;;;;;;6140187;23;20522;-85
2022/07/08 12:36:29;;;;;;;2.30;1.30;;;29.80;51.10;;;;;;6151158;23;20464;-85
2022/07/08 12:38:56;;;;;;;2.67;1.50;;;29.40;51.90;;;;;;6131965;23;20956;-85
2022/07/08 12:41:23;;;;;;;1.77;1.20;;;28.80;53.20;;;;;;6120667;23;20429;-84
2022/07/08 12:43:51;;;;;;;3.37;1.30;;;28.60;53.40;;;;;;6121262;23;20443;-84
2022/07/08 12:46:18;;;;;;;3.80;1.30;;;28.50;53.30;;;;;;6121379;23;20459;-84
2022/07/08 12:48:47;;;;;;;2.53;1.40;;;28.50;54.00;;;;;;6120986;23;21127;-84
2022/07/08 12:51:14;;;;;;;2.30;1.20;;;28.80;54.20;;;;;;6120755;23;20446;-85
2022/07/08 12:53:41;;;;;;;1.80;1.17;;;29.10;53.90;;;;;;6120686;23;20464;-79
2022/07/08 12:56:08;;;;;;;1.83;1.40;;;29.60;53.80;;;;;;6118685;23;20532;-79
2022/07/08 12:58:35;;;;;;;2.23;1.40;;;30.20;52.80;;;;;;6106881;23;20443;-79